Antioch, IL (60002)

10:39 PM CST en Diciembre 18, 2014 (GMT -0600)
CLUBLANDS ANTIOCH | Change Station
CLOSE
Current Station
Estación meteorológica personal
Location: ANTIOCH, IL
Altura: 805 ft
Estaciones meteorológicas cercanas

Alt 805 ft 42.46 °N, 88.04 °W | Updated 2 seconds ago

Nublado
Nublado
27.3 ° F
Sensación térmica 27 ° F
N
1.0
Viento Variable Viento desde NE
Gusts 1.0 mph

Hoy
Alta -- | Baja -- ° F
--% Posibilidad de precipitaciones
Ayer
Alta -- | Baja -- ° F
Precip. -- pul
7:16 AM 4:21 PM
Creciente menguante, 10% visible
Presión 30.30 pul
Visibilidad 8.0 Millas
Nubes Nublado 2600 ft
Vientos helados 27 ° F
Punto de rocío 24 ° F
Humedad 88%
Precipitaciones 0.00 pul
Espesor de la nieve No disponible.
UV 0 de una escala de 12
Polen .10 de una escala de 12
Calidad del aire No disponible.
Flu Activity No disponible.
METAR KUGN 190355Z AUTO 33005KT 8SM OVC026 M03/M05 A3024 RMK AO2 SLP258 T10281050

More Conditions Fewer Conditions

Presión 30.30 pul
Visibilidad 8.0 Millas
Nubes Nublado 2600 ft
Vientos helados 27 ° F
Punto de rocío 24 ° F
Humedad 88%
Precipitaciones 0.00 pul
Espesor de la nieve No disponible.
UV 0 de una escala de 12
Polen .10 de una escala de 12
Calidad del aire No disponible.
Flu Activity No disponible.
METAR KUGN 190355Z AUTO 33005KT 8SM OVC026 M03/M05 A3024 RMK AO2 SLP258 T10281050

More Conditions Fewer Conditions

10-Day Weather Forecast

Almanac

Astronomía

Dec. 18, 2014 Salida Puesta
Hora real
Crepúsculo civil
Crepúsculo náutico
Crepúsculo astronómico
Luna
Horas de luz
Horas de luz
Tomorrow will be .
, % of the Moon is Illuminated

Extremos de hoy

Máximos del estado Bajos del estado

Community

WunderPhotos

Upload Photos

1,778,963 ¡fotos cargadas!

WunderBlogs® & News

Nearby

Calidad del aire

  Calidad del aire Índice AQ Contaminante
Not available.

Grosos de nieve

Estación Profundido Altura

Actividad de terremotos

Ciudad Distance Mag. Tiempo y dato
Magnitud mínima muestra es 2,5.

Temperaturas de aguas costeras

Lugar Temperatura

Estaciones meteorológicas cercanas